Terminal Aerodrome Forecast
Issued by NWS

Home | Current Version | Previous Version | Text Only | Print | Product List | Glossary Off
Versions: 1 2 3 4 5 6 7 8 9 10 11 12 13 14 15 16

985
FTUS43 KICT 282320
TAFRSL
TAF
KRSL 282320Z 2900/2924 02015G22KT P6SM OVC015
     FM290600 02015G22KT 5SM SHRA OVC007
     FM291300 02018G25KT 6SM -SHRA OVC012=

USA.gov is the U.S. government's official web portal to all federal, state and local government web resources and services.